sensor_id;sensor_type;location;lat;lon;timestamp;P1;durP1;ratioP1;P2;durP2;ratioP2
36787;SDS011;22738;45.560;9.434;2022-07-29T00:02:20;5.22;;;2.03;;
36787;SDS011;22738;45.560;9.434;2022-07-29T00:09:01;5.63;;;2.40;;
36787;SDS011;22738;45.560;9.434;2022-07-29T00:15:42;5.78;;;2.15;;
36787;SDS011;22738;45.560;9.434;2022-07-29T00:22:23;5.20;;;2.20;;
36787;SDS011;22738;45.560;9.434;2022-07-29T00:29:04;3.28;;;2.17;;
36787;SDS011;22738;45.560;9.434;2022-07-29T00:35:45;2.45;;;1.80;;
36787;SDS011;22738;45.560;9.434;2022-07-29T00:42:26;3.15;;;1.63;;
36787;SDS011;22738;45.560;9.434;2022-07-29T00:49:08;2.75;;;1.85;;
36787;SDS011;22738;45.560;9.434;2022-07-29T00:55:49;2.58;;;1.67;;
36787;SDS011;22738;45.560;9.434;2022-07-29T01:02:30;3.83;;;1.92;;
36787;SDS011;22738;45.560;9.434;2022-07-29T01:09:11;3.42;;;1.95;;
36787;SDS011;22738;45.560;9.434;2022-07-29T01:15:56;2.30;;;1.83;;
36787;SDS011;22738;45.560;9.434;2022-07-29T01:22:52;5.88;;;2.72;;
36787;SDS011;22738;45.560;9.434;2022-07-29T01:29:48;3.00;;;1.67;;
36787;SDS011;22738;45.560;9.434;2022-07-29T01:36:35;2.42;;;1.50;;
36787;SDS011;22738;45.560;9.434;2022-07-29T01:43:21;1.98;;;1.42;;
36787;SDS011;22738;45.560;9.434;2022-07-29T01:50:08;2.53;;;1.52;;
36787;SDS011;22738;45.560;9.434;2022-07-29T01:56:53;2.25;;;1.50;;
36787;SDS011;22738;45.560;9.434;2022-07-29T02:03:37;5.18;;;1.75;;
36787;SDS011;22738;45.560;9.434;2022-07-29T02:10:21;2.42;;;1.77;;
36787;SDS011;22738;45.560;9.434;2022-07-29T02:17:04;1.63;;;1.35;;
36787;SDS011;22738;45.560;9.434;2022-07-29T02:23:46;3.45;;;1.98;;
36787;SDS011;22738;45.560;9.434;2022-07-29T02:30:29;2.60;;;1.70;;
36787;SDS011;22738;45.560;9.434;2022-07-29T02:37:12;2.92;;;2.00;;
36787;SDS011;22738;45.560;9.434;2022-07-29T02:43:55;6.75;;;2.22;;
36787;SDS011;22738;45.560;9.434;2022-07-29T02:50:41;4.20;;;1.80;;
36787;SDS011;22738;45.560;9.434;2022-07-29T02:57:44;5.25;;;2.40;;
36787;SDS011;22738;45.560;9.434;2022-07-29T03:04:30;3.92;;;2.35;;
36787;SDS011;22738;45.560;9.434;2022-07-29T03:11:12;3.15;;;1.95;;
36787;SDS011;22738;45.560;9.434;2022-07-29T03:17:55;5.15;;;2.22;;
36787;SDS011;22738;45.560;9.434;2022-07-29T03:24:37;4.35;;;2.97;;
36787;SDS011;22738;45.560;9.434;2022-07-29T03:31:19;4.90;;;2.65;;
36787;SDS011;22738;45.560;9.434;2022-07-29T03:38:00;8.10;;;3.30;;
36787;SDS011;22738;45.560;9.434;2022-07-29T03:44:41;3.47;;;2.50;;
36787;SDS011;22738;45.560;9.434;2022-07-29T03:51:26;3.55;;;2.83;;
36787;SDS011;22738;45.560;9.434;2022-07-29T03:58:07;6.63;;;3.20;;
36787;SDS011;22738;45.560;9.434;2022-07-29T04:04:49;7.32;;;3.42;;
36787;SDS011;22738;45.560;9.434;2022-07-29T04:11:30;7.10;;;3.20;;
36787;SDS011;22738;45.560;9.434;2022-07-29T04:18:11;8.68;;;2.53;;
36787;SDS011;22738;45.560;9.434;2022-07-29T04:24:52;5.85;;;4.03;;
36787;SDS011;22738;45.560;9.434;2022-07-29T04:31:33;5.95;;;3.10;;
36787;SDS011;22738;45.560;9.434;2022-07-29T04:38:15;4.07;;;3.15;;
36787;SDS011;22738;45.560;9.434;2022-07-29T04:44:56;6.65;;;2.95;;
36787;SDS011;22738;45.560;9.434;2022-07-29T04:51:37;5.00;;;3.75;;
36787;SDS011;22738;45.560;9.434;2022-07-29T04:58:18;5.57;;;2.80;;
36787;SDS011;22738;45.560;9.434;2022-07-29T05:04:59;3.20;;;2.20;;
36787;SDS011;22738;45.560;9.434;2022-07-29T05:11:40;5.60;;;2.55;;
36787;SDS011;22738;45.560;9.434;2022-07-29T05:18:21;3.97;;;2.90;;
36787;SDS011;22738;45.560;9.434;2022-07-29T05:25:02;4.63;;;2.42;;
36787;SDS011;22738;45.560;9.434;2022-07-29T05:31:43;9.38;;;2.97;;
36787;SDS011;22738;45.560;9.434;2022-07-29T05:38:24;3.13;;;2.08;;
36787;SDS011;22738;45.560;9.434;2022-07-29T05:45:06;4.13;;;1.75;;
36787;SDS011;22738;45.560;9.434;2022-07-29T05:51:47;3.22;;;1.73;;
36787;SDS011;22738;45.560;9.434;2022-07-29T05:58:30;2.97;;;1.83;;
36787;SDS011;22738;45.560;9.434;2022-07-29T06:05:11;4.28;;;2.30;;
36787;SDS011;22738;45.560;9.434;2022-07-29T06:11:52;4.47;;;2.58;;
36787;SDS011;22738;45.560;9.434;2022-07-29T06:18:34;3.15;;;1.90;;
36787;SDS011;22738;45.560;9.434;2022-07-29T06:25:15;4.43;;;2.70;;
36787;SDS011;22738;45.560;9.434;2022-07-29T06:31:56;5.20;;;2.83;;
36787;SDS011;22738;45.560;9.434;2022-07-29T06:38:37;6.40;;;2.63;;
36787;SDS011;22738;45.560;9.434;2022-07-29T06:45:19;4.43;;;2.55;;
36787;SDS011;22738;45.560;9.434;2022-07-29T06:52:00;6.32;;;2.28;;
36787;SDS011;22738;45.560;9.434;2022-07-29T06:58:41;6.18;;;2.53;;
36787;SDS011;22738;45.560;9.434;2022-07-29T07:05:22;3.90;;;2.67;;
36787;SDS011;22738;45.560;9.434;2022-07-29T07:12:03;5.15;;;2.90;;
36787;SDS011;22738;45.560;9.434;2022-07-29T07:18:44;5.88;;;2.88;;
36787;SDS011;22738;45.560;9.434;2022-07-29T07:25:26;4.30;;;2.73;;
36787;SDS011;22738;45.560;9.434;2022-07-29T07:32:07;7.65;;;2.50;;
36787;SDS011;22738;45.560;9.434;2022-07-29T07:38:48;3.83;;;2.30;;
36787;SDS011;22738;45.560;9.434;2022-07-29T07:45:30;4.20;;;2.60;;
36787;SDS011;22738;45.560;9.434;2022-07-29T07:52:13;6.97;;;2.22;;
36787;SDS011;22738;45.560;9.434;2022-07-29T07:58:56;3.60;;;1.92;;
36787;SDS011;22738;45.560;9.434;2022-07-29T08:05:37;4.20;;;2.40;;
36787;SDS011;22738;45.560;9.434;2022-07-29T08:12:19;4.27;;;2.27;;
36787;SDS011;22738;45.560;9.434;2022-07-29T08:19:00;5.72;;;2.65;;
36787;SDS011;22738;45.560;9.434;2022-07-29T08:25:41;4.60;;;2.80;;
36787;SDS011;22738;45.560;9.434;2022-07-29T08:32:22;4.80;;;2.65;;
36787;SDS011;22738;45.560;9.434;2022-07-29T08:39:04;4.43;;;2.53;;
36787;SDS011;22738;45.560;9.434;2022-07-29T08:45:46;4.53;;;2.78;;
36787;SDS011;22738;45.560;9.434;2022-07-29T08:52:29;3.42;;;2.13;;
36787;SDS011;22738;45.560;9.434;2022-07-29T08:59:17;3.60;;;2.53;;
36787;SDS011;22738;45.560;9.434;2022-07-29T09:06:01;4.18;;;2.15;;
36787;SDS011;22738;45.560;9.434;2022-07-29T09:12:43;6.70;;;2.88;;
36787;SDS011;22738;45.560;9.434;2022-07-29T09:19:29;8.15;;;2.92;;
36787;SDS011;22738;45.560;9.434;2022-07-29T09:26:12;3.85;;;2.85;;
36787;SDS011;22738;45.560;9.434;2022-07-29T09:32:57;4.32;;;2.38;;
36787;SDS011;22738;45.560;9.434;2022-07-29T09:39:41;7.10;;;3.97;;
36787;SDS011;22738;45.560;9.434;2022-07-29T09:46:28;4.05;;;3.10;;
36787;SDS011;22738;45.560;9.434;2022-07-29T09:53:10;5.28;;;3.28;;
36787;SDS011;22738;45.560;9.434;2022-07-29T10:00:03;6.83;;;3.40;;
36787;SDS011;22738;45.560;9.434;2022-07-29T10:06:58;10.88;;;3.90;;
36787;SDS011;22738;45.560;9.434;2022-07-29T10:13:42;5.70;;;3.45;;
36787;SDS011;22738;45.560;9.434;2022-07-29T10:20:25;4.20;;;3.53;;
36787;SDS011;22738;45.560;9.434;2022-07-29T10:27:08;7.25;;;3.33;;
36787;SDS011;22738;45.560;9.434;2022-07-29T10:34:04;5.40;;;4.22;;
36787;SDS011;22738;45.560;9.434;2022-07-29T10:48:18;9.23;;;4.80;;
36787;SDS011;22738;45.560;9.434;2022-07-29T10:54:59;6.10;;;4.00;;
36787;SDS011;22738;45.560;9.434;2022-07-29T11:08:23;8.75;;;3.92;;
36787;SDS011;22738;45.560;9.434;2022-07-29T11:15:06;6.32;;;4.20;;
36787;SDS011;22738;45.560;9.434;2022-07-29T11:21:49;9.38;;;6.82;;
36787;SDS011;22738;45.560;9.434;2022-07-29T11:28:30;7.70;;;4.57;;
36787;SDS011;22738;45.560;9.434;2022-07-29T11:35:19;9.43;;;4.72;;
36787;SDS011;22738;45.560;9.434;2022-07-29T11:49:02;14.88;;;6.65;;
36787;SDS011;22738;45.560;9.434;2022-07-29T11:55:43;13.02;;;6.50;;
36787;SDS011;22738;45.560;9.434;2022-07-29T12:02:24;8.20;;;4.80;;
36787;SDS011;22738;45.560;9.434;2022-07-29T12:09:08;4.72;;;4.05;;
36787;SDS011;22738;45.560;9.434;2022-07-29T12:15:53;6.47;;;4.72;;
36787;SDS011;22738;45.560;9.434;2022-07-29T12:22:39;9.30;;;4.68;;
36787;SDS011;22738;45.560;9.434;2022-07-29T12:29:24;8.48;;;5.05;;
36787;SDS011;22738;45.560;9.434;2022-07-29T12:36:07;8.45;;;5.70;;
36787;SDS011;22738;45.560;9.434;2022-07-29T12:49:50;7.97;;;4.78;;
36787;SDS011;22738;45.560;9.434;2022-07-29T12:56:31;9.13;;;3.97;;
36787;SDS011;22738;45.560;9.434;2022-07-29T13:03:13;8.00;;;5.30;;
36787;SDS011;22738;45.560;9.434;2022-07-29T13:09:54;5.30;;;4.30;;
36787;SDS011;22738;45.560;9.434;2022-07-29T13:17:14;5.10;;;4.60;;
36787;SDS011;22738;45.560;9.434;2022-07-29T13:23:53;8.75;;;4.68;;
36787;SDS011;22738;45.560;9.434;2022-07-29T13:30:34;6.97;;;4.32;;
36787;SDS011;22738;45.560;9.434;2022-07-29T13:37:15;8.25;;;5.05;;
36787;SDS011;22738;45.560;9.434;2022-07-29T13:43:57;7.80;;;4.88;;
36787;SDS011;22738;45.560;9.434;2022-07-29T13:50:38;6.82;;;4.80;;
36787;SDS011;22738;45.560;9.434;2022-07-29T13:57:19;7.38;;;5.80;;
36787;SDS011;22738;45.560;9.434;2022-07-29T14:04:00;7.20;;;4.97;;
36787;SDS011;22738;45.560;9.434;2022-07-29T14:10:41;6.20;;;4.68;;
36787;SDS011;22738;45.560;9.434;2022-07-29T14:17:22;7.80;;;4.97;;
36787;SDS011;22738;45.560;9.434;2022-07-29T14:24:04;6.55;;;5.18;;
36787;SDS011;22738;45.560;9.434;2022-07-29T14:30:45;5.87;;;5.30;;
36787;SDS011;22738;45.560;9.434;2022-07-29T14:37:27;8.20;;;5.32;;
36787;SDS011;22738;45.560;9.434;2022-07-29T14:44:08;6.47;;;4.88;;
36787;SDS011;22738;45.560;9.434;2022-07-29T14:50:49;5.18;;;4.60;;
36787;SDS011;22738;45.560;9.434;2022-07-29T14:57:31;13.70;;;6.60;;
36787;SDS011;22738;45.560;9.434;2022-07-29T15:04:12;20.00;;;9.50;;
36787;SDS011;22738;45.560;9.434;2022-07-29T15:10:53;34.78;;;12.57;;
36787;SDS011;22738;45.560;9.434;2022-07-29T15:17:34;19.02;;;9.90;;
36787;SDS011;22738;45.560;9.434;2022-07-29T15:24:16;12.45;;;5.68;;
36787;SDS011;22738;45.560;9.434;2022-07-29T15:30:58;12.90;;;5.47;;
36787;SDS011;22738;45.560;9.434;2022-07-29T15:37:39;15.50;;;6.35;;
36787;SDS011;22738;45.560;9.434;2022-07-29T15:44:21;11.63;;;5.50;;
36787;SDS011;22738;45.560;9.434;2022-07-29T15:51:02;11.63;;;6.80;;
36787;SDS011;22738;45.560;9.434;2022-07-29T15:57:43;19.65;;;9.77;;
36787;SDS011;22738;45.560;9.434;2022-07-29T16:04:24;16.42;;;10.18;;
36787;SDS011;22738;45.560;9.434;2022-07-29T16:11:05;16.83;;;10.68;;
36787;SDS011;22738;45.560;9.434;2022-07-29T16:17:46;15.45;;;8.02;;
36787;SDS011;22738;45.560;9.434;2022-07-29T16:24:27;6.07;;;4.05;;
36787;SDS011;22738;45.560;9.434;2022-07-29T16:31:09;8.13;;;3.88;;
36787;SDS011;22738;45.560;9.434;2022-07-29T16:37:50;4.03;;;3.05;;
36787;SDS011;22738;45.560;9.434;2022-07-29T16:44:32;7.03;;;3.22;;
36787;SDS011;22738;45.560;9.434;2022-07-29T16:51:13;12.75;;;6.60;;
36787;SDS011;22738;45.560;9.434;2022-07-29T16:57:54;6.70;;;4.80;;
36787;SDS011;22738;45.560;9.434;2022-07-29T17:04:35;6.80;;;4.07;;
36787;SDS011;22738;45.560;9.434;2022-07-29T17:11:17;9.43;;;5.72;;
36787;SDS011;22738;45.560;9.434;2022-07-29T17:17:58;9.13;;;6.05;;
36787;SDS011;22738;45.560;9.434;2022-07-29T17:24:40;9.48;;;5.63;;
36787;SDS011;22738;45.560;9.434;2022-07-29T17:31:21;9.82;;;5.20;;
36787;SDS011;22738;45.560;9.434;2022-07-29T17:38:02;8.32;;;5.80;;
36787;SDS011;22738;45.560;9.434;2022-07-29T17:44:44;8.35;;;5.03;;
36787;SDS011;22738;45.560;9.434;2022-07-29T17:51:25;10.68;;;5.80;;
36787;SDS011;22738;45.560;9.434;2022-07-29T17:58:06;8.95;;;4.85;;
36787;SDS011;22738;45.560;9.434;2022-07-29T18:11:31;10.25;;;6.05;;
36787;SDS011;22738;45.560;9.434;2022-07-29T18:18:12;7.78;;;5.43;;
36787;SDS011;22738;45.560;9.434;2022-07-29T18:24:54;10.63;;;5.10;;
36787;SDS011;22738;45.560;9.434;2022-07-29T18:31:35;11.50;;;5.43;;
36787;SDS011;22738;45.560;9.434;2022-07-29T18:38:17;6.50;;;4.85;;
36787;SDS011;22738;45.560;9.434;2022-07-29T18:45:00;5.90;;;4.73;;
36787;SDS011;22738;45.560;9.434;2022-07-29T18:51:41;10.73;;;4.15;;
36787;SDS011;22738;45.560;9.434;2022-07-29T18:58:22;5.95;;;3.80;;
36787;SDS011;22738;45.560;9.434;2022-07-29T19:05:06;13.65;;;3.70;;
36787;SDS011;22738;45.560;9.434;2022-07-29T19:11:49;8.85;;;5.18;;
36787;SDS011;22738;45.560;9.434;2022-07-29T19:18:31;4.95;;;3.78;;
36787;SDS011;22738;45.560;9.434;2022-07-29T19:25:12;5.65;;;3.63;;
36787;SDS011;22738;45.560;9.434;2022-07-29T19:31:53;7.25;;;4.35;;
36787;SDS011;22738;45.560;9.434;2022-07-29T19:38:34;7.70;;;4.07;;
36787;SDS011;22738;45.560;9.434;2022-07-29T19:45:18;4.13;;;3.33;;
36787;SDS011;22738;45.560;9.434;2022-07-29T19:52:04;9.35;;;3.20;;
36787;SDS011;22738;45.560;9.434;2022-07-29T19:58:45;4.80;;;2.78;;
36787;SDS011;22738;45.560;9.434;2022-07-29T20:05:26;3.15;;;2.53;;
36787;SDS011;22738;45.560;9.434;2022-07-29T20:12:08;6.13;;;2.63;;
36787;SDS011;22738;45.560;9.434;2022-07-29T20:18:50;3.17;;;2.35;;
36787;SDS011;22738;45.560;9.434;2022-07-29T20:25:31;4.22;;;2.92;;
36787;SDS011;22738;45.560;9.434;2022-07-29T20:32:12;4.60;;;3.30;;
36787;SDS011;22738;45.560;9.434;2022-07-29T20:38:54;4.13;;;2.70;;
36787;SDS011;22738;45.560;9.434;2022-07-29T20:45:35;4.43;;;3.75;;
36787;SDS011;22738;45.560;9.434;2022-07-29T20:52:17;6.60;;;4.47;;
36787;SDS011;22738;45.560;9.434;2022-07-29T20:58:59;6.28;;;4.43;;
36787;SDS011;22738;45.560;9.434;2022-07-29T21:05:40;5.78;;;4.30;;
36787;SDS011;22738;45.560;9.434;2022-07-29T21:12:23;8.73;;;5.30;;
36787;SDS011;22738;45.560;9.434;2022-07-29T21:19:04;5.50;;;4.53;;
36787;SDS011;22738;45.560;9.434;2022-07-29T21:25:46;4.95;;;4.30;;
36787;SDS011;22738;45.560;9.434;2022-07-29T21:32:27;6.45;;;5.00;;
36787;SDS011;22738;45.560;9.434;2022-07-29T21:39:08;7.63;;;5.25;;
36787;SDS011;22738;45.560;9.434;2022-07-29T21:45:49;9.68;;;4.97;;
36787;SDS011;22738;45.560;9.434;2022-07-29T21:52:30;7.80;;;5.63;;
36787;SDS011;22738;45.560;9.434;2022-07-29T21:59:12;8.45;;;6.47;;
36787;SDS011;22738;45.560;9.434;2022-07-29T22:05:53;10.32;;;6.80;;
36787;SDS011;22738;45.560;9.434;2022-07-29T22:12:34;10.73;;;7.63;;
36787;SDS011;22738;45.560;9.434;2022-07-29T22:19:15;8.93;;;7.38;;
36787;SDS011;22738;45.560;9.434;2022-07-29T22:25:56;9.90;;;8.35;;
36787;SDS011;22738;45.560;9.434;2022-07-29T22:32:37;9.95;;;8.27;;
36787;SDS011;22738;45.560;9.434;2022-07-29T22:39:18;12.40;;;9.98;;
36787;SDS011;22738;45.560;9.434;2022-07-29T22:45:59;11.77;;;9.40;;
36787;SDS011;22738;45.560;9.434;2022-07-29T22:52:40;12.25;;;9.20;;
36787;SDS011;22738;45.560;9.434;2022-07-29T22:59:21;14.25;;;11.13;;
36787;SDS011;22738;45.560;9.434;2022-07-29T23:06:03;17.83;;;12.73;;
36787;SDS011;22738;45.560;9.434;2022-07-29T23:12:44;21.20;;;14.48;;
36787;SDS011;22738;45.560;9.434;2022-07-29T23:19:26;22.30;;;15.00;;
36787;SDS011;22738;45.560;9.434;2022-07-29T23:26:07;23.73;;;15.23;;
36787;SDS011;22738;45.560;9.434;2022-07-29T23:32:49;24.20;;;17.30;;
36787;SDS011;22738;45.560;9.434;2022-07-29T23:39:30;20.23;;;16.17;;
36787;SDS011;22738;45.560;9.434;2022-07-29T23:46:11;24.45;;;16.48;;
36787;SDS011;22738;45.560;9.434;2022-07-29T23:52:52;22.75;;;16.30;;
36787;SDS011;22738;45.560;9.434;2022-07-29T23:59:33;20.02;;;15.00;;
